Hartford, VT

2:56 AM EDT on September 05, 2015 (GMT -0400)
Montshire Museum | | Change Station
CLOSE
Current Station
Personal Weather Station
Location: Norwich, VT
Elevation: 436 ft
Nearby Weather Stations

Elev 436 ft 43.70 °N, 72.31 °W | Updated 7 seconds ago

Clear
Clear
55.5 °F
Feels Like 55.5 °F
N
3.7
Wind Variable Wind from NNW
Gusts 4.0 mph

Today
High -- | Low -- °F
--% Chance of Precip.
Yesterday
High -- | Low -- °F
Precip. -- in
6:17 AM 7:18 PM
Waning Gibbous, 51% visible
Pressure 30.24 in
Visibility 8.0 miles
Clouds Mostly Cloudy 100 ft
Dew Point 55 °F
Humidity 97%
Rainfall 0.00 in
Snow Depth Not available.
UV 0 out of 12
Pollen 7.90 out of 12
Air Quality Not available.
Flu Activity Not available.
METAR KLEB 050653Z AUTO 00000KT 8SM BKN001 12/11 A3025 RMK AO2 SLP238 T01170106
Pressure 30.24 in
Visibility 8.0 miles
Clouds Mostly Cloudy 100 ft
Dew Point 55 °F
Humidity 97%
Rainfall 0.00 in
Snow Depth Not available.
UV 0 out of 12
Pollen 7.90 out of 12
Air Quality Not available.
Flu Activity Not available.
METAR KLEB 050653Z AUTO 00000KT 8SM BKN001 12/11 A3025 RMK AO2 SLP238 T01170106

10-Day Weather Forecast

×

Almanac

Astronomy

Sep. 05, 2015 Rise Set
Actual Time
Civil Twilight
Nautical Twilight
Astronomical Twilight
Moon
Length of Visible Light
Length of Day
Tomorrow will be .
, % of the Moon is Illuminated

Today's Extremes

State Highs State Lows

Community

WunderPhotos

Upload Photos

1,852,430 photos uploaded!

WunderBlogs® & News

Nearby

Air Quality

  Air Quality AQ Index Pollutant
Not available.

Snow Depth

Station Depth Elevation

Earthquake Activity

City Distance Mag. Time & Date
Minimum magnitude displayed is 2.5.

Coastal Water Temperatures

Place Temperature

Stations

Nearby Weather Stations

Station Location Temp. Windchill Dew Point Humidity Wind Precip. Elev Updated Type